Terminal Aerodrome Forecast
Issued by NWS

Home | Current Version | Previous Version | Text Only | Print | Product List | Glossary On
Versions: 1 2 3 4 5 6 7 8 9 10 11 12 13 14 15 16 17 18 19 20 21 22
000
FTPA31 PHFO 222300 AAA
TAFJHM
TAF AMD
PHJH 222359Z 2300/2324 03009KT P6SM VCSH SCT010 SCT020 BKN040
      TEMPO 2300/2304 3SM SHRA BR BKN010
     FM230400 04007KT P6SM VCSH FEW015 SCT030
     FM232000 05015KT P6SM FEW025 SCT040
      AMD NOT SKED AFT 230400=

USA.gov is the U.S. government's official web portal to all federal, state and local government web resources and services.